createdAt,value
2022-10-12T00:01:15.623Z,100.00
2022-10-12T00:03:41.894Z,100.00
2022-10-12T00:06:12.042Z,100.00
2022-10-12T00:08:40.552Z,100.00
2022-10-12T00:11:10.198Z,100.00
2022-10-12T00:13:36.618Z,100.00
2022-10-12T00:16:05.370Z,100.00
2022-10-12T00:18:33.055Z,100.00
2022-10-12T00:21:10.856Z,100.00
2022-10-12T00:23:37.958Z,100.00
2022-10-12T00:26:06.682Z,100.00
2022-10-12T00:28:34.099Z,100.00
2022-10-12T00:31:01.482Z,100.00
2022-10-12T00:33:28.597Z,100.00
2022-10-12T00:35:54.904Z,100.00
2022-10-12T00:38:22.182Z,100.00
2022-10-12T00:40:48.770Z,100.00
2022-10-12T00:43:44.988Z,100.00
2022-10-12T00:46:19.902Z,100.00
2022-10-12T00:48:51.932Z,100.00
2022-10-12T00:51:19.443Z,100.00
2022-10-12T00:53:51.449Z,100.00
2022-10-12T00:56:21.779Z,100.00
2022-10-12T00:58:49.452Z,100.00
2022-10-12T01:01:16.906Z,100.00
2022-10-12T01:03:43.739Z,100.00
2022-10-12T01:06:10.535Z,100.00
2022-10-12T01:08:37.447Z,100.00
2022-10-12T01:11:04.103Z,100.00
2022-10-12T01:13:31.780Z,100.00
2022-10-12T01:16:21.788Z,100.00
2022-10-12T01:19:15.929Z,100.00
2022-10-12T01:21:50.594Z,100.00
2022-10-12T01:24:31.969Z,100.00
2022-10-12T01:27:23.556Z,100.00
2022-10-12T01:29:58.804Z,100.00
2022-10-12T01:32:34.084Z,100.00
2022-10-12T01:35:41.286Z,100.00
2022-10-12T01:38:15.336Z,100.00
2022-10-12T01:40:47.145Z,100.00
2022-10-12T01:43:17.379Z,100.00
2022-10-12T01:45:43.943Z,100.00
2022-10-12T01:48:10.234Z,100.00
2022-10-12T01:50:49.168Z,100.00
2022-10-12T01:53:35.752Z,100.00
2022-10-12T01:56:22.069Z,100.00
2022-10-12T01:58:57.576Z,100.00
2022-10-12T02:02:02.619Z,100.00
2022-10-12T02:04:34.241Z,100.00
2022-10-12T02:07:06.029Z,100.00
2022-10-12T02:09:35.129Z,100.00
2022-10-12T02:12:07.431Z,100.00
2022-10-12T02:14:41.319Z,100.00
2022-10-12T02:17:12.815Z,100.00
2022-10-12T02:19:43.934Z,100.00
2022-10-12T02:22:12.467Z,100.00
2022-10-12T02:24:43.651Z,100.00
2022-10-12T02:27:13.660Z,100.00
2022-10-12T02:29:42.512Z,100.00
2022-10-12T02:32:27.199Z,100.00
2022-10-12T02:35:07.489Z,100.00
2022-10-12T02:37:44.473Z,100.00
2022-10-12T02:40:34.325Z,100.00
2022-10-12T02:43:10.801Z,100.00
2022-10-12T02:45:44.350Z,100.00
2022-10-12T02:48:15.942Z,100.00
2022-10-12T02:50:43.070Z,100.00
2022-10-12T02:53:12.222Z,100.00
2022-10-12T02:55:50.525Z,100.00
2022-10-12T02:58:17.385Z,100.00
2022-10-12T03:00:44.476Z,100.00
2022-10-12T03:03:10.799Z,100.00
2022-10-12T03:05:37.202Z,100.00
2022-10-12T03:08:04.049Z,100.00
2022-10-12T03:10:30.666Z,100.00
2022-10-12T03:12:56.884Z,100.00
2022-10-12T03:15:23.330Z,100.00
2022-10-12T03:17:49.713Z,100.00
2022-10-12T03:20:15.937Z,100.00
2022-10-12T03:22:42.402Z,100.00
2022-10-12T03:25:08.690Z,100.00
2022-10-12T03:27:35.424Z,100.00
2022-10-12T03:30:01.995Z,100.00
2022-10-12T03:32:29.067Z,100.00
2022-10-12T03:34:56.013Z,100.00
2022-10-12T03:37:24.510Z,100.00
2022-10-12T03:39:50.682Z,100.00
2022-10-12T03:42:17.063Z,100.00
2022-10-12T03:44:43.276Z,100.00
2022-10-12T03:47:09.684Z,100.00
2022-10-12T03:49:35.880Z,100.00
2022-10-12T03:52:02.365Z,100.00
2022-10-12T03:54:28.867Z,100.00
2022-10-12T03:56:55.274Z,100.00
2022-10-12T03:59:21.419Z,100.00
2022-10-12T04:01:47.872Z,100.00
2022-10-12T04:04:14.331Z,100.00
2022-10-12T04:06:40.454Z,100.00
2022-10-12T04:09:06.860Z,100.00
2022-10-12T04:11:33.100Z,100.00
2022-10-12T04:13:59.915Z,100.00
2022-10-12T04:16:28.831Z,100.00
2022-10-12T04:18:57.306Z,100.00
2022-10-12T04:21:24.090Z,100.00
2022-10-12T04:23:50.597Z,100.00
2022-10-12T04:26:16.752Z,100.00
2022-10-12T04:28:42.950Z,100.00
2022-10-12T04:31:09.412Z,100.00
2022-10-12T04:33:35.623Z,100.00
2022-10-12T04:36:02.025Z,100.00
2022-10-12T04:38:28.330Z,100.00
2022-10-12T04:40:54.696Z,100.00
2022-10-12T04:43:20.810Z,100.00
2022-10-12T04:45:54.759Z,100.00
2022-10-12T04:48:21.692Z,100.00
2022-10-12T04:50:48.155Z,100.00
2022-10-12T04:53:14.513Z,100.00
2022-10-12T04:55:41.102Z,100.00
2022-10-12T04:58:07.392Z,100.00
2022-10-12T05:00:34.028Z,100.00
2022-10-12T05:03:00.357Z,100.00
2022-10-12T05:05:26.556Z,100.00
2022-10-12T05:07:53.025Z,100.00
2022-10-12T05:10:19.290Z,100.00
2022-10-12T05:12:45.813Z,100.00
2022-10-12T05:15:12.018Z,100.00
2022-10-12T05:17:39.021Z,100.00
2022-10-12T05:20:06.328Z,100.00
2022-10-12T05:22:32.688Z,100.00
2022-10-12T05:24:59.091Z,100.00
2022-10-12T05:27:25.463Z,100.00
2022-10-12T05:29:52.013Z,100.00
2022-10-12T05:32:18.510Z,100.00
2022-10-12T05:34:44.741Z,100.00
2022-10-12T05:37:11.181Z,100.00
2022-10-12T05:39:37.399Z,100.00
2022-10-12T05:42:04.435Z,100.00
2022-10-12T05:44:30.627Z,100.00
2022-10-12T05:46:57.145Z,100.00
2022-10-12T05:49:23.455Z,100.00
2022-10-12T05:51:50.053Z,100.00
2022-10-12T05:54:16.229Z,100.00
2022-10-12T05:56:42.731Z,100.00
2022-10-12T05:59:10.826Z,100.00
2022-10-12T06:01:37.398Z,100.00
2022-10-12T06:04:03.945Z,100.00
2022-10-12T06:06:30.549Z,100.00
2022-10-12T06:08:56.735Z,100.00
2022-10-12T06:11:23.302Z,100.00
2022-10-12T06:13:49.996Z,98.47
2022-10-12T06:16:16.417Z,97.22
2022-10-12T06:18:42.555Z,98.14
2022-10-12T06:21:28.852Z,98.51
2022-10-12T06:23:55.343Z,99.93
2022-10-12T06:26:24.300Z,100.00
2022-10-12T06:28:50.492Z,100.00
2022-10-12T06:31:16.972Z,100.00
2022-10-12T06:33:43.203Z,100.00
2022-10-12T06:36:09.761Z,100.00
2022-10-12T06:38:36.189Z,100.00
2022-10-12T06:41:02.701Z,100.00
2022-10-12T06:43:29.131Z,100.00
2022-10-12T06:46:00.319Z,100.00
2022-10-12T06:48:26.639Z,100.00
2022-10-12T06:50:55.755Z,100.00
2022-10-12T06:53:22.725Z,100.00
2022-10-12T06:55:49.246Z,100.00
2022-10-12T06:58:15.532Z,100.00
2022-10-12T07:00:42.147Z,100.00
2022-10-12T07:03:11.966Z,100.00
2022-10-12T07:05:38.378Z,100.00
2022-10-12T07:08:04.999Z,100.00
2022-10-12T07:10:31.463Z,100.00
2022-10-12T07:12:57.647Z,100.00
2022-10-12T07:15:24.104Z,100.00
2022-10-12T07:17:50.340Z,100.00
2022-10-12T07:20:16.685Z,100.00
2022-10-12T07:22:44.273Z,100.00
2022-10-12T07:25:10.921Z,100.00
2022-10-12T07:27:37.511Z,100.00
2022-10-12T07:30:04.688Z,100.00
2022-10-12T07:32:30.880Z,100.00
2022-10-12T07:34:57.241Z,100.00
2022-10-12T07:37:23.541Z,100.00
2022-10-12T07:39:49.712Z,100.00
2022-10-12T07:42:19.255Z,100.00
2022-10-12T07:44:48.676Z,100.00
2022-10-12T07:47:17.122Z,100.00
2022-10-12T07:49:43.479Z,100.00
2022-10-12T07:52:10.122Z,100.00
2022-10-12T07:54:36.344Z,100.00
2022-10-12T07:57:02.779Z,100.00
2022-10-12T07:59:29.010Z,100.00
2022-10-12T08:01:55.540Z,100.00
2022-10-12T08:04:21.833Z,100.00
2022-10-12T08:06:48.240Z,100.00
2022-10-12T08:09:14.420Z,100.00
2022-10-12T08:11:41.391Z,100.00
2022-10-12T08:14:17.121Z,100.00
2022-10-12T08:16:44.376Z,100.00
2022-10-12T08:19:11.479Z,100.00
2022-10-12T08:21:39.325Z,100.00
2022-10-12T08:24:06.015Z,100.00
2022-10-12T08:26:32.893Z,100.00
2022-10-12T08:29:00.974Z,100.00
2022-10-12T08:31:27.581Z,99.76
2022-10-12T08:33:56.252Z,100.00
2022-10-12T08:36:22.783Z,100.00
2022-10-12T08:38:53.435Z,100.00
2022-10-12T08:41:35.723Z,99.82
2022-10-12T08:44:07.802Z,99.05
2022-10-12T08:46:34.552Z,99.02
2022-10-12T08:49:05.471Z,99.40
2022-10-12T08:51:39.645Z,98.31
2022-10-12T08:54:13.951Z,97.90
2022-10-12T08:56:40.827Z,97.73
2022-10-12T08:59:16.267Z,96.75
2022-10-12T09:02:13.205Z,96.17
2022-10-12T09:04:53.313Z,95.42
2022-10-12T09:07:25.085Z,96.60
2022-10-12T09:10:10.352Z,95.91
2022-10-12T09:12:52.119Z,95.21
2022-10-12T09:15:26.776Z,94.67
2022-10-12T09:17:55.614Z,95.82
2022-10-12T09:20:21.756Z,95.58
2022-10-12T09:22:54.669Z,95.27
2022-10-12T09:25:26.939Z,94.93
2022-10-12T09:27:54.284Z,94.42
2022-10-12T09:30:20.796Z,92.90
2022-10-12T09:33:12.309Z,91.45
2022-10-12T09:35:45.773Z,90.82
2022-10-12T09:38:12.684Z,91.02
2022-10-12T09:40:39.804Z,89.80
2022-10-12T09:43:07.026Z,88.62
2022-10-12T09:45:35.150Z,90.20
2022-10-12T09:48:08.715Z,88.74
2022-10-12T09:50:55.193Z,89.37
2022-10-12T09:53:38.184Z,89.07
2022-10-12T09:56:10.727Z,88.41
2022-10-12T09:58:49.209Z,88.15
2022-10-12T10:01:30.448Z,87.41
2022-10-12T10:04:14.248Z,88.54
2022-10-12T10:06:45.906Z,87.35
2022-10-12T10:09:31.946Z,86.59
2022-10-12T10:12:22.015Z,85.13
2022-10-12T10:14:50.278Z,86.53
2022-10-12T10:17:33.254Z,84.00
2022-10-12T10:20:04.301Z,83.44
2022-10-12T10:22:31.587Z,85.09
2022-10-12T10:25:00.729Z,83.06
2022-10-12T10:27:37.066Z,82.44
2022-10-12T10:30:40.587Z,83.38
2022-10-12T10:33:16.692Z,82.61
2022-10-12T10:36:18.010Z,82.74
2022-10-12T10:38:56.758Z,84.17
2022-10-12T10:41:36.579Z,82.06
2022-10-12T10:44:04.896Z,82.70
2022-10-12T10:46:34.160Z,82.84
2022-10-12T10:49:06.444Z,81.58
2022-10-12T10:51:46.225Z,83.12
2022-10-12T10:54:23.499Z,82.18
2022-10-12T10:56:52.980Z,81.81
2022-10-12T10:59:28.671Z,81.81
2022-10-12T11:02:01.170Z,81.70
2022-10-12T11:04:34.439Z,81.86
2022-10-12T11:07:16.293Z,81.59
2022-10-12T11:09:47.168Z,80.98
2022-10-12T11:12:21.973Z,80.54
2022-10-12T11:14:51.741Z,81.39
2022-10-12T11:17:37.561Z,80.08
2022-10-12T11:20:22.563Z,81.68
2022-10-12T11:22:58.005Z,80.68
2022-10-12T11:25:28.756Z,81.75
2022-10-12T11:27:55.248Z,79.16
2022-10-12T11:30:24.908Z,78.37
2022-10-12T11:32:59.499Z,78.03
2022-10-12T11:35:31.821Z,77.55
2022-10-12T11:38:04.705Z,76.59
2022-10-12T11:41:02.494Z,78.38
2022-10-12T11:43:36.077Z,76.83
2022-10-12T11:46:09.585Z,76.98
2022-10-12T11:48:44.594Z,77.55
2022-10-12T11:51:12.097Z,76.69
2022-10-12T11:53:50.912Z,76.51
2022-10-12T11:56:25.172Z,75.68
2022-10-12T11:59:01.051Z,77.05
2022-10-12T12:02:01.165Z,75.82
2022-10-12T12:04:46.770Z,76.65
2022-10-12T12:07:22.613Z,78.11
2022-10-12T12:09:51.004Z,77.73
2022-10-12T12:12:27.069Z,77.75
2022-10-12T12:14:53.454Z,76.17
2022-10-12T12:17:19.728Z,76.10
2022-10-12T12:19:50.919Z,75.09
2022-10-12T12:22:22.996Z,73.87
2022-10-12T12:25:07.946Z,75.16
2022-10-12T12:27:51.183Z,73.50
2022-10-12T12:30:17.644Z,74.88
2022-10-12T12:33:05.334Z,74.61
2022-10-12T12:35:40.536Z,74.57
2022-10-12T12:38:12.677Z,74.99
2022-10-12T12:40:41.167Z,74.94
2022-10-12T12:43:21.250Z,75.02
2022-10-12T12:46:09.345Z,76.06
2022-10-12T12:48:38.531Z,75.83
2022-10-12T12:51:08.607Z,76.37
2022-10-12T12:53:44.435Z,77.24
2022-10-12T12:56:34.085Z,77.19
2022-10-12T12:59:21.770Z,77.33
2022-10-12T13:02:35.618Z,77.00
2022-10-12T13:05:39.591Z,77.06
2022-10-12T13:08:31.312Z,75.94
2022-10-12T13:11:00.420Z,76.54
2022-10-12T13:14:04.728Z,76.27
2022-10-12T13:19:43.728Z,77.76
2022-10-12T13:22:18.262Z,77.68
2022-10-12T13:24:49.684Z,77.95
2022-10-12T13:27:22.469Z,76.47
2022-10-12T13:29:59.714Z,74.98
2022-10-12T13:32:38.064Z,74.80
2022-10-12T13:35:13.769Z,74.96
2022-10-12T13:37:40.059Z,74.70
2022-10-12T13:40:31.029Z,75.62
2022-10-12T13:43:22.193Z,75.64
2022-10-12T13:45:49.042Z,75.16
2022-10-12T13:48:34.331Z,74.09
2022-10-12T13:51:21.938Z,76.40
2022-10-12T13:53:48.373Z,75.06
2022-10-12T13:56:19.019Z,74.36
2022-10-12T13:58:46.053Z,74.95
2022-10-12T14:01:13.153Z,74.29
2022-10-12T14:03:42.693Z,73.43
2022-10-12T14:06:38.304Z,73.86
2022-10-12T14:09:13.750Z,74.96
2022-10-12T14:11:41.658Z,73.44
2022-10-12T14:14:35.689Z,74.61
2022-10-12T14:17:02.611Z,74.64
2022-10-12T14:19:46.133Z,74.92
2022-10-12T14:22:20.247Z,74.79
2022-10-12T14:24:47.232Z,74.45
2022-10-12T14:27:27.183Z,74.58
2022-10-12T14:30:06.527Z,74.71
2022-10-12T14:32:40.650Z,75.18
2022-10-12T14:35:10.229Z,74.77
2022-10-12T14:37:39.253Z,75.28
2022-10-12T14:40:38.856Z,75.01
2022-10-12T14:43:07.315Z,75.56
2022-10-12T14:45:34.779Z,75.35
2022-10-12T14:48:02.518Z,75.91
2022-10-12T14:50:31.178Z,76.12
2022-10-12T14:53:04.105Z,76.11
2022-10-12T14:55:33.090Z,76.71
2022-10-12T14:57:59.935Z,77.23
2022-10-12T15:00:26.240Z,77.60
2022-10-12T15:02:53.189Z,77.90
2022-10-12T15:05:23.234Z,78.05
2022-10-12T15:07:50.471Z,78.82
2022-10-12T15:10:19.106Z,80.12
2022-10-12T15:12:45.646Z,80.83
2022-10-12T15:15:38.409Z,82.19
2022-10-12T15:18:05.966Z,82.25
2022-10-12T15:20:32.765Z,82.73
2022-10-12T15:22:59.632Z,83.61
2022-10-12T15:25:34.604Z,85.11
2022-10-12T15:28:02.604Z,87.09
2022-10-12T15:30:29.098Z,87.26
2022-10-12T15:32:55.655Z,89.43
2022-10-12T15:35:25.063Z,89.83
2022-10-12T15:37:55.799Z,89.81
2022-10-12T15:40:22.378Z,90.57
2022-10-12T15:42:49.100Z,91.12
2022-10-12T15:45:22.415Z,91.80
2022-10-12T15:47:50.703Z,92.61
2022-10-12T15:50:19.676Z,92.15
2022-10-12T15:52:46.251Z,92.94
2022-10-12T15:55:21.613Z,94.01
2022-10-12T15:57:49.649Z,94.21
2022-10-12T16:00:17.843Z,95.01
2022-10-12T16:02:44.617Z,95.05
2022-10-12T16:05:25.012Z,94.91
2022-10-12T16:07:52.866Z,95.66
2022-10-12T16:10:22.099Z,96.13
2022-10-12T16:12:50.859Z,96.92
2022-10-12T16:15:23.323Z,97.54
2022-10-12T16:17:51.587Z,97.47
2022-10-12T16:20:18.180Z,98.27
2022-10-12T16:22:45.025Z,98.30
2022-10-12T16:25:13.381Z,98.30
2022-10-12T16:27:39.882Z,98.63
2022-10-12T16:30:07.684Z,98.82
2022-10-12T16:32:35.120Z,99.05
2022-10-12T16:35:09.122Z,98.79
2022-10-12T16:37:35.517Z,99.04
2022-10-12T16:40:04.940Z,99.01
2022-10-12T16:42:31.683Z,99.61
2022-10-12T16:44:58.355Z,99.57
2022-10-12T16:47:27.422Z,100.00
2022-10-12T16:49:53.936Z,100.00
2022-10-12T16:52:23.869Z,100.00
2022-10-12T16:54:55.106Z,100.00
2022-10-12T16:57:22.759Z,99.87
2022-10-12T16:59:50.252Z,99.78
2022-10-12T17:02:18.714Z,100.00
2022-10-12T17:04:46.241Z,100.00
2022-10-12T17:07:13.397Z,100.00
2022-10-12T17:09:39.972Z,100.00
2022-10-12T17:12:06.362Z,100.00
2022-10-12T17:14:32.894Z,100.00
2022-10-12T17:16:59.703Z,100.00
2022-10-12T17:19:31.796Z,100.00
2022-10-12T17:22:00.246Z,100.00
2022-10-12T17:24:29.184Z,100.00
2022-10-12T17:26:56.467Z,100.00
2022-10-12T17:29:25.359Z,100.00
2022-10-12T17:31:54.877Z,100.00
2022-10-12T17:34:50.724Z,100.00
2022-10-12T17:37:17.011Z,100.00
2022-10-12T17:39:47.671Z,100.00
2022-10-12T17:42:14.314Z,100.00
2022-10-12T17:44:42.042Z,100.00
2022-10-12T17:47:08.668Z,100.00
2022-10-12T17:49:35.120Z,100.00
2022-10-12T17:52:03.385Z,100.00
2022-10-12T17:54:29.855Z,100.00
2022-10-12T17:56:56.638Z,100.00
2022-10-12T17:59:23.806Z,100.00
2022-10-12T18:01:51.828Z,100.00
2022-10-12T18:04:19.715Z,100.00
2022-10-12T18:06:46.225Z,100.00
2022-10-12T18:09:12.943Z,100.00
2022-10-12T18:11:39.978Z,100.00
2022-10-12T18:14:08.736Z,100.00
2022-10-12T18:16:35.708Z,100.00
2022-10-12T18:19:07.605Z,100.00
2022-10-12T18:21:33.981Z,100.00
2022-10-12T18:24:05.597Z,100.00
2022-10-12T18:26:35.008Z,100.00
2022-10-12T18:29:01.714Z,100.00
2022-10-12T18:31:29.337Z,100.00
2022-10-12T18:33:57.548Z,100.00
2022-10-12T18:36:24.656Z,100.00
2022-10-12T18:38:52.247Z,100.00
2022-10-12T18:41:21.874Z,100.00
2022-10-12T18:43:54.686Z,100.00
2022-10-12T18:46:25.087Z,100.00
2022-10-12T18:48:52.519Z,100.00
2022-10-12T18:51:21.110Z,100.00
2022-10-12T18:53:47.936Z,100.00
2022-10-12T18:56:16.650Z,100.00
2022-10-12T18:58:43.269Z,100.00
2022-10-12T19:01:16.192Z,100.00
2022-10-12T19:03:46.906Z,100.00
2022-10-12T19:06:16.718Z,100.00
2022-10-12T19:08:43.653Z,100.00
2022-10-12T19:11:12.819Z,100.00
2022-10-12T19:13:41.784Z,100.00
2022-10-12T19:16:14.638Z,100.00
2022-10-12T19:18:42.387Z,100.00
2022-10-12T19:21:19.978Z,100.00
2022-10-12T19:23:46.675Z,100.00
2022-10-12T19:26:17.668Z,100.00
2022-10-12T19:28:45.499Z,100.00
2022-10-12T19:31:19.876Z,100.00
2022-10-12T19:33:46.993Z,100.00
2022-10-12T19:36:16.331Z,100.00
2022-10-12T19:38:45.311Z,100.00
2022-10-12T19:41:12.664Z,100.00
2022-10-12T19:43:39.840Z,100.00
2022-10-12T19:46:11.538Z,100.00
2022-10-12T19:48:41.348Z,100.00
2022-10-12T19:51:11.627Z,100.00
2022-10-12T19:53:39.798Z,100.00
2022-10-12T19:56:09.035Z,100.00
2022-10-12T19:58:35.956Z,100.00
2022-10-12T20:01:05.682Z,100.00
2022-10-12T20:03:34.268Z,100.00
2022-10-12T20:06:08.670Z,100.00
2022-10-12T20:08:38.260Z,100.00
2022-10-12T20:11:04.731Z,100.00
2022-10-12T20:13:31.746Z,100.00
2022-10-12T20:15:58.757Z,100.00
2022-10-12T20:18:26.575Z,100.00
2022-10-12T20:20:53.889Z,100.00
2022-10-12T20:23:21.447Z,100.00
2022-10-12T20:25:51.126Z,100.00
2022-10-12T20:28:18.993Z,100.00
2022-10-12T20:30:46.276Z,100.00
2022-10-12T20:33:13.562Z,100.00
2022-10-12T20:35:48.401Z,100.00
2022-10-12T20:38:16.505Z,100.00
2022-10-12T20:40:43.378Z,100.00
2022-10-12T20:43:10.079Z,100.00
2022-10-12T20:45:36.971Z,100.00
2022-10-12T20:48:04.251Z,100.00
2022-10-12T20:50:30.849Z,100.00
2022-10-12T20:52:57.577Z,100.00
2022-10-12T20:55:24.036Z,100.00
2022-10-12T20:57:50.504Z,100.00
2022-10-12T21:00:17.152Z,100.00
2022-10-12T21:02:43.579Z,100.00
2022-10-12T21:05:09.853Z,100.00
2022-10-12T21:07:36.578Z,100.00
2022-10-12T21:10:03.315Z,100.00
2022-10-12T21:12:30.623Z,100.00
2022-10-12T21:14:57.208Z,100.00
2022-10-12T21:17:23.446Z,100.00
2022-10-12T21:19:51.427Z,100.00
2022-10-12T21:22:18.196Z,100.00
2022-10-12T21:24:44.594Z,100.00
2022-10-12T21:27:10.838Z,100.00
2022-10-12T21:29:37.267Z,100.00
2022-10-12T21:32:03.798Z,100.00
2022-10-12T21:34:30.001Z,100.00
2022-10-12T21:36:56.459Z,100.00
2022-10-12T21:39:22.681Z,100.00
2022-10-12T21:41:48.798Z,100.00
2022-10-12T21:44:15.162Z,100.00
2022-10-12T21:46:41.906Z,100.00
2022-10-12T21:49:10.373Z,100.00
2022-10-12T21:51:38.012Z,100.00
2022-10-12T21:54:05.245Z,100.00
2022-10-12T21:56:34.462Z,100.00
2022-10-12T21:59:04.121Z,100.00
2022-10-12T22:01:36.249Z,100.00
2022-10-12T22:04:05.912Z,100.00
2022-10-12T22:06:33.395Z,100.00
2022-10-12T22:09:04.281Z,100.00
2022-10-12T22:11:32.712Z,100.00
2022-10-12T22:14:05.059Z,100.00
2022-10-12T22:16:34.615Z,100.00
2022-10-12T22:19:03.041Z,100.00
2022-10-12T22:21:33.471Z,100.00
2022-10-12T22:24:01.320Z,100.00
2022-10-12T22:26:28.356Z,100.00
2022-10-12T22:28:57.101Z,100.00
2022-10-12T22:31:24.254Z,100.00
2022-10-12T22:33:51.418Z,100.00
2022-10-12T22:36:17.732Z,100.00
2022-10-12T22:38:45.225Z,100.00
2022-10-12T22:41:14.481Z,100.00
2022-10-12T22:43:48.696Z,100.00
2022-10-12T22:46:15.886Z,100.00
2022-10-12T22:48:42.316Z,100.00
2022-10-12T22:51:13.668Z,100.00
2022-10-12T22:53:39.813Z,100.00
2022-10-12T22:56:14.379Z,100.00
2022-10-12T22:58:40.909Z,100.00
2022-10-12T23:01:09.973Z,100.00
2022-10-12T23:03:36.648Z,100.00
2022-10-12T23:06:10.592Z,100.00
2022-10-12T23:08:37.071Z,100.00
2022-10-12T23:11:06.435Z,100.00
2022-10-12T23:13:36.429Z,100.00
2022-10-12T23:16:07.177Z,100.00
2022-10-12T23:18:33.571Z,100.00
2022-10-12T23:21:03.202Z,100.00
2022-10-12T23:23:29.863Z,100.00
2022-10-12T23:26:05.157Z,100.00
2022-10-12T23:28:32.219Z,100.00
2022-10-12T23:30:58.639Z,100.00
2022-10-12T23:33:24.879Z,100.00
2022-10-12T23:35:59.258Z,100.00
2022-10-12T23:38:29.798Z,100.00
2022-10-12T23:40:56.558Z,100.00
2022-10-12T23:43:22.876Z,100.00
2022-10-12T23:45:49.485Z,100.00
2022-10-12T23:48:16.024Z,100.00
2022-10-12T23:50:46.272Z,100.00
2022-10-12T23:53:12.925Z,100.00
2022-10-12T23:55:39.410Z,100.00
2022-10-12T23:58:06.459Z,100.00
